This is the latest recevied weather packets stored in our database for station/object OE9XVI-6. If no packets are shown the sender has not sent any weather packets the latest 10 day(s).
| Time | Temp. | Humidity | Pressure | Rain* | Wind** | Luminosity | Snow |
|---|---|---|---|---|---|---|---|
| 1777574227 | 14.44° C | 40% | 1023.8 hPa | 0 mm | - | - | - |
| 1777573627 | 15° C | 37% | 1023.8 hPa | 0 mm | - | - | - |
| 1777573027 | 16.11° C | 34% | 1023.7 hPa | 0 mm | - | - | - |
| 1777572427 | 18.89° C | 30% | 1023.7 hPa | 0 mm | - | - | - |
| 1777571827 | 20° C | 28% | 1023.7 hPa | 0 mm | - | - | - |
| 1777571227 | 20° C | 30% | 1023.3 hPa | 0 mm | - | - | - |
| 1777570627 | 21.67° C | 27% | 1023.4 hPa | 0 mm | - | - | - |
| 1777570027 | 23.89° C | 23% | 1023.5 hPa | 0 mm | - | - | - |
| 1777569427 | 22.22° C | 28% | 1023.5 hPa | 0 mm | - | - | - |
| 1777568827 | 22.78° C | 26% | 1023.7 hPa | 0 mm | - | - | - |
| 1777568227 | 22.22° C | 29% | 1023.5 hPa | 0 mm | - | - | - |
| 1777567627 | 22.78° C | 30% | 1023.4 hPa | 0 mm | - | - | - |
| 1777567027 | 22.22° C | 29% | 1023.5 hPa | 0 mm | - | - | - |
| 1777566427 | 22.78° C | 28% | 1023.5 hPa | 0 mm | - | - | - |
| 1777565829 | 23.33° C | 29% | 1023.3 hPa | 0 mm | - | - | - |
| 1777565227 | 23.33° C | 30% | 1023.5 hPa | 0 mm | - | - | - |
| 1777564627 | 22.22° C | 31% | 1023.3 hPa | 0 mm | - | - | - |
| 1777564027 | 23.33° C | 31% | 1023.4 hPa | 0 mm | - | - | - |
| 1777563427 | 22.78° C | 31% | 1023.4 hPa | 0 mm | - | - | - |
| 1777562827 | 22.78° C | 32% | 1023.5 hPa | 0 mm | - | - | - |
| 1777562227 | 22.22° C | 31% | 1023.3 hPa | 0 mm | - | - | - |
| 1777561627 | 22.22° C | 35% | 1023.3 hPa | 0 mm | - | - | - |
| 1777561027 | 21.11° C | 35% | 1023.2 hPa | 0 mm | - | - | - |
| 1777560427 | 20° C | 40% | 1023.3 hPa | 0 mm | - | - | - |
| 1777559827 | 20° C | 39% | 1023.3 hPa | 0 mm | - | - | - |
* Rain latest hour (hover to see other rain measurements)
** Current wind speed in m/s (hover to see current wind gust speed)